createdAt,value
2018-11-23T00:00:21.281Z,1.88
2018-11-23T00:03:25.590Z,1.94
2018-11-23T00:06:29.896Z,1.90
2018-11-23T00:09:34.232Z,1.90
2018-11-23T00:12:38.647Z,1.87
2018-11-23T00:15:42.913Z,1.90
2018-11-23T00:18:47.248Z,1.92
2018-11-23T00:21:51.540Z,1.81
2018-11-23T00:24:55.855Z,1.77
2018-11-23T00:28:00.046Z,1.76
2018-11-23T00:31:04.351Z,1.80
2018-11-23T00:34:08.585Z,1.83
2018-11-23T00:37:12.732Z,1.82
2018-11-23T00:40:22.061Z,1.98
2018-11-23T00:43:26.212Z,2.11
2018-11-23T00:46:30.539Z,2.26
2018-11-23T00:49:34.673Z,2.19
2018-11-23T00:52:39.077Z,2.06
2018-11-23T00:55:43.211Z,1.89
2018-11-23T00:58:47.383Z,1.86
2018-11-23T01:01:56.933Z,1.93
2018-11-23T01:05:01.090Z,1.89
2018-11-23T01:08:05.339Z,1.76
2018-11-23T01:11:09.476Z,1.70
2018-11-23T01:14:13.619Z,1.60
2018-11-23T01:17:17.763Z,1.56
2018-11-23T01:20:23.087Z,1.57
2018-11-23T01:23:27.314Z,1.55
2018-11-23T01:26:31.494Z,1.53
2018-11-23T01:29:35.628Z,1.46
2018-11-23T01:32:39.768Z,1.51
2018-11-23T01:35:43.924Z,1.57
2018-11-23T01:38:48.052Z,1.55
2018-11-23T01:41:52.188Z,1.54
2018-11-23T01:44:56.343Z,1.52
2018-11-23T01:48:00.489Z,1.24
2018-11-23T01:51:04.741Z,1.33
2018-11-23T01:54:08.911Z,1.29
2018-11-23T01:57:13.116Z,1.22
2018-11-23T02:00:19.566Z,1.22
2018-11-23T02:03:23.706Z,1.33
2018-11-23T02:06:28.229Z,1.35
2018-11-23T02:09:32.384Z,1.42
2018-11-23T02:12:36.623Z,1.51
2018-11-23T02:15:40.763Z,1.58
2018-11-23T02:18:44.912Z,1.63
2018-11-23T02:21:49.046Z,1.56
2018-11-23T02:24:53.352Z,1.65
2018-11-23T02:27:57.582Z,1.69
2018-11-23T02:31:05.790Z,1.81
2018-11-23T02:34:09.943Z,1.77
2018-11-23T02:37:14.343Z,1.77
2018-11-23T02:40:19.576Z,1.91
2018-11-23T02:43:23.733Z,1.93
2018-11-23T02:46:27.867Z,1.84
2018-11-23T02:49:32.024Z,1.61
2018-11-23T02:52:36.255Z,1.74
2018-11-23T02:55:40.419Z,1.81
2018-11-23T02:58:44.595Z,1.77
2018-11-23T03:01:48.763Z,1.72
2018-11-23T03:04:52.907Z,1.76
2018-11-23T03:07:57.065Z,1.63
2018-11-23T03:11:01.191Z,1.47
2018-11-23T03:14:08.808Z,1.36
2018-11-23T03:17:12.965Z,1.45
2018-11-23T03:20:18.375Z,1.40
2018-11-23T03:23:22.521Z,1.39
2018-11-23T03:26:26.671Z,1.37
2018-11-23T03:29:30.832Z,1.40
2018-11-23T03:32:34.970Z,1.45
2018-11-23T03:35:39.131Z,1.37
2018-11-23T03:38:43.280Z,1.48
2018-11-23T03:41:47.451Z,1.45
2018-11-23T03:44:51.612Z,1.43
2018-11-23T03:47:55.762Z,1.54
2018-11-23T03:50:59.909Z,1.36
2018-11-23T03:54:04.057Z,1.24
2018-11-23T03:57:08.315Z,1.10
2018-11-23T04:00:18.221Z,1.04
2018-11-23T04:03:22.361Z,0.98
2018-11-23T04:06:26.504Z,1.07
2018-11-23T04:09:30.648Z,1.21
2018-11-23T04:12:34.821Z,1.27
2018-11-23T04:15:38.983Z,1.36
2018-11-23T04:18:43.141Z,1.25
2018-11-23T04:21:47.280Z,1.23
2018-11-23T04:24:51.439Z,1.21
2018-11-23T04:27:55.643Z,1.23
2018-11-23T04:30:59.780Z,1.24
2018-11-23T04:34:03.924Z,1.38
2018-11-23T04:37:08.111Z,1.48
2018-11-23T04:40:13.067Z,1.50
2018-11-23T04:43:17.230Z,1.54
2018-11-23T04:46:21.355Z,1.57
2018-11-23T04:49:25.500Z,1.60
2018-11-23T04:52:29.685Z,1.62
2018-11-23T04:55:33.812Z,1.52
2018-11-23T04:58:38.124Z,1.39
2018-11-23T05:01:42.260Z,1.32
2018-11-23T05:04:46.402Z,1.30
2018-11-23T05:07:50.560Z,1.40
2018-11-23T05:10:54.698Z,1.48
2018-11-23T05:13:58.847Z,1.38
2018-11-23T05:17:02.979Z,1.25
2018-11-23T05:20:08.270Z,1.16
2018-11-23T05:23:12.484Z,1.17
2018-11-23T05:26:16.614Z,1.14
2018-11-23T05:29:20.759Z,1.12
2018-11-23T05:32:24.915Z,1.08
2018-11-23T05:35:29.079Z,1.18
2018-11-23T05:38:33.340Z,1.29
2018-11-23T05:41:37.487Z,1.44
2018-11-23T05:44:41.635Z,1.36
2018-11-23T05:47:45.996Z,1.22
2018-11-23T05:50:50.131Z,1.12
2018-11-23T05:53:55.202Z,1.01
2018-11-23T05:57:00.663Z,1.03
2018-11-23T06:00:08.037Z,1.16
2018-11-23T06:03:12.210Z,1.30
2018-11-23T06:06:16.558Z,1.30
2018-11-23T06:09:20.784Z,1.33
2018-11-23T06:12:24.915Z,1.28
2018-11-23T06:15:29.054Z,1.24
2018-11-23T06:18:33.202Z,1.33
2018-11-23T06:21:37.340Z,1.37
2018-11-23T06:24:41.495Z,1.22
2018-11-23T06:27:45.690Z,1.24
2018-11-23T06:30:49.815Z,1.31
2018-11-23T06:33:53.951Z,1.27
2018-11-23T06:36:58.096Z,1.29
2018-11-23T06:40:02.231Z,1.43
2018-11-23T06:43:06.683Z,1.28
2018-11-23T06:46:12.086Z,1.27
2018-11-23T06:49:16.240Z,1.25
2018-11-23T06:52:20.362Z,1.31
2018-11-23T06:55:24.503Z,1.43
2018-11-23T06:58:28.653Z,1.35
2018-11-23T07:01:32.804Z,1.34
2018-11-23T07:04:36.941Z,1.32
2018-11-23T07:07:41.147Z,1.45
2018-11-23T07:10:45.280Z,1.46
2018-11-23T07:13:49.440Z,1.65
2018-11-23T07:16:53.584Z,1.78
2018-11-23T07:19:57.755Z,1.81
2018-11-23T07:23:01.904Z,1.92
2018-11-23T07:26:06.381Z,2.00
2018-11-23T07:29:10.535Z,2.06
2018-11-23T07:32:14.696Z,2.01
2018-11-23T07:35:18.858Z,1.82
2018-11-23T07:38:23.021Z,1.77
2018-11-23T07:42:42.789Z,1.49
2018-11-23T07:45:46.963Z,1.46
2018-11-23T07:48:51.123Z,1.54
2018-11-23T07:51:55.280Z,1.58
2018-11-23T07:54:59.428Z,1.60
2018-11-23T07:58:03.846Z,1.69
2018-11-23T08:01:07.977Z,1.76
2018-11-23T08:04:12.128Z,1.97
2018-11-23T08:07:16.279Z,2.26
2018-11-23T08:10:19.547Z,2.33
2018-11-23T08:13:23.683Z,2.38
2018-11-23T08:16:27.812Z,2.42
2018-11-23T08:19:31.963Z,2.40
2018-11-23T08:22:36.095Z,2.53
2018-11-23T08:25:40.233Z,2.58
2018-11-23T08:28:44.375Z,2.60
2018-11-23T08:31:48.515Z,2.69
2018-11-23T08:34:52.682Z,2.84
2018-11-23T08:37:56.834Z,2.75
2018-11-23T08:41:00.976Z,2.79
2018-11-23T08:44:05.142Z,2.90
2018-11-23T08:47:09.295Z,2.88
2018-11-23T08:50:17.419Z,2.99
2018-11-23T08:53:29.228Z,3.14
2018-11-23T08:56:33.355Z,3.33
2018-11-23T08:59:37.506Z,3.45
2018-11-23T09:02:41.884Z,3.52
2018-11-23T09:05:46.006Z,3.53
2018-11-23T09:08:50.149Z,3.65
2018-11-23T09:11:54.299Z,3.79
2018-11-23T09:14:58.430Z,3.73
2018-11-23T09:18:02.558Z,3.91
2018-11-23T09:21:07.159Z,4.06
2018-11-23T09:24:11.291Z,4.21
2018-11-23T09:27:15.435Z,4.09
2018-11-23T09:30:21.072Z,4.06
2018-11-23T09:33:25.271Z,4.27
2018-11-23T09:36:29.415Z,4.95
2018-11-23T09:39:33.539Z,6.16
2018-11-23T09:42:38.152Z,7.40
2018-11-23T09:45:42.303Z,8.07
2018-11-23T09:48:46.531Z,7.30
2018-11-23T09:51:50.758Z,6.32
2018-11-23T09:54:54.900Z,5.81
2018-11-23T09:57:59.048Z,5.60
2018-11-23T10:01:03.215Z,5.57
2018-11-23T10:04:07.334Z,5.61
2018-11-23T10:07:11.483Z,6.45
2018-11-23T10:10:16.523Z,8.13
2018-11-23T10:13:20.659Z,8.74
2018-11-23T10:16:24.803Z,9.32
2018-11-23T10:19:32.551Z,9.48
2018-11-23T10:22:36.691Z,9.10
2018-11-23T10:25:40.815Z,8.73
2018-11-23T10:28:44.947Z,8.20
2018-11-23T10:31:49.101Z,7.72
2018-11-23T10:34:53.239Z,7.89
2018-11-23T10:37:58.593Z,8.73
2018-11-23T10:41:02.715Z,9.49
2018-11-23T10:44:06.876Z,9.87
2018-11-23T10:47:11.016Z,9.32
2018-11-23T10:50:17.065Z,8.41
2018-11-23T10:53:21.199Z,8.15
2018-11-23T10:56:25.338Z,9.26
2018-11-23T10:59:29.476Z,9.85
2018-11-23T11:02:39.003Z,10.14
2018-11-23T11:05:48.517Z,10.32
2018-11-23T11:08:52.656Z,10.25
2018-11-23T11:11:56.805Z,10.42
2018-11-23T11:15:00.964Z,10.69
2018-11-23T11:18:05.156Z,11.00
2018-11-23T11:21:09.300Z,11.31
2018-11-23T11:24:13.495Z,12.10
2018-11-23T11:27:17.635Z,12.67
2018-11-23T11:30:21.829Z,13.06
2018-11-23T11:33:25.962Z,13.05
2018-11-23T11:36:30.120Z,12.34
2018-11-23T11:39:34.267Z,12.29
2018-11-23T11:42:38.619Z,12.59
2018-11-23T11:45:43.388Z,13.46
2018-11-23T11:48:46.896Z,13.61
2018-11-23T11:51:51.044Z,13.95
2018-11-23T11:54:55.267Z,14.08
2018-11-23T11:57:59.494Z,13.29
2018-11-23T12:01:03.631Z,12.56
2018-11-23T12:04:07.791Z,12.53
2018-11-23T12:07:11.941Z,12.37
2018-11-23T12:10:18.064Z,12.49
2018-11-23T12:13:22.203Z,12.18
2018-11-23T12:16:26.343Z,12.33
2018-11-23T12:19:30.639Z,12.27
2018-11-23T12:22:34.783Z,12.47
2018-11-23T12:25:38.940Z,11.95
2018-11-23T12:28:43.122Z,12.06
2018-11-23T12:31:47.275Z,11.87
2018-11-23T12:34:51.815Z,11.94
2018-11-23T12:37:55.972Z,12.30
2018-11-23T12:41:00.084Z,12.08
2018-11-23T12:44:04.220Z,12.11
2018-11-23T12:47:08.372Z,12.44
2018-11-23T12:50:15.887Z,12.28
2018-11-23T12:53:20.012Z,12.62
2018-11-23T12:56:24.322Z,12.75
2018-11-23T12:59:28.472Z,13.21
2018-11-23T13:02:32.585Z,13.09
2018-11-23T13:05:36.935Z,12.85
2018-11-23T13:08:41.074Z,12.23
2018-11-23T13:11:45.213Z,11.36
2018-11-23T13:14:49.361Z,10.84
2018-11-23T13:17:53.779Z,10.44
2018-11-23T13:20:57.908Z,10.22
2018-11-23T13:24:02.679Z,9.93
2018-11-23T13:27:10.952Z,9.69
2018-11-23T13:30:18.303Z,9.31
2018-11-23T13:33:22.403Z,9.15
2018-11-23T13:36:26.528Z,9.08
2018-11-23T13:39:31.150Z,9.08
2018-11-23T13:42:34.812Z,9.00
2018-11-23T13:45:39.127Z,8.94
2018-11-23T13:48:43.340Z,8.89
2018-11-23T13:51:47.472Z,8.81
2018-11-23T13:54:51.593Z,8.77
2018-11-23T13:57:55.704Z,8.75
2018-11-23T14:00:59.819Z,8.70
2018-11-23T14:04:03.960Z,8.72
2018-11-23T14:07:08.076Z,8.72
2018-11-23T14:10:14.564Z,8.74
2018-11-23T14:13:18.664Z,8.75
2018-11-23T14:16:22.783Z,8.63
2018-11-23T14:19:26.966Z,8.57
2018-11-23T14:22:31.080Z,8.53
2018-11-23T14:25:35.187Z,8.48
2018-11-23T14:28:39.300Z,8.50
2018-11-23T14:31:43.444Z,8.51
2018-11-23T14:34:47.684Z,8.51
2018-11-23T14:37:52.639Z,8.38
2018-11-23T14:40:56.779Z,8.28
2018-11-23T14:44:06.778Z,8.23
2018-11-23T14:47:05.014Z,8.14
2018-11-23T14:50:13.348Z,8.07
2018-11-23T14:53:17.632Z,7.95
2018-11-23T14:56:21.731Z,7.90
2018-11-23T14:59:25.847Z,7.82
2018-11-23T15:02:29.961Z,7.74
2018-11-23T15:05:34.392Z,7.70
2018-11-23T15:08:38.514Z,7.66
2018-11-23T15:11:42.634Z,7.62
2018-11-23T15:14:46.768Z,7.50
2018-11-23T15:17:51.625Z,7.45
2018-11-23T15:20:55.726Z,7.37
2018-11-23T15:24:00.826Z,7.30
2018-11-23T15:27:03.976Z,7.22
2018-11-23T15:30:20.015Z,7.14
2018-11-23T15:33:24.197Z,7.08
2018-11-23T15:36:28.314Z,7.00
2018-11-23T15:39:32.419Z,6.91
2018-11-23T15:42:36.539Z,6.91
2018-11-23T15:45:40.646Z,6.82
2018-11-23T15:48:44.758Z,6.77
2018-11-23T15:51:48.903Z,6.73
2018-11-23T15:54:53.011Z,6.60
2018-11-23T15:57:58.766Z,6.61
2018-11-23T16:01:02.895Z,6.54
2018-11-23T16:04:07.017Z,6.49
2018-11-23T16:07:11.211Z,6.44
2018-11-23T16:10:21.444Z,6.36
2018-11-23T16:13:25.564Z,6.34
2018-11-23T16:16:29.679Z,6.25
2018-11-23T16:19:33.784Z,6.13
2018-11-23T16:22:37.893Z,5.99
2018-11-23T16:25:42.677Z,5.91
2018-11-23T16:28:46.780Z,5.82
2018-11-23T16:31:50.935Z,5.75
2018-11-23T16:34:55.040Z,5.75
2018-11-23T16:38:00.737Z,5.68
2018-11-23T16:41:05.344Z,5.69
2018-11-23T16:44:09.471Z,5.53
2018-11-23T16:47:13.599Z,5.47
2018-11-23T16:50:17.712Z,5.38
2018-11-23T16:53:21.839Z,5.43
2018-11-23T16:56:25.946Z,5.29
2018-11-23T16:59:30.056Z,5.35
2018-11-23T17:02:34.213Z,5.41
2018-11-23T17:05:40.787Z,5.33
2018-11-23T17:08:44.907Z,5.31
2018-11-23T17:11:49.018Z,5.28
2018-11-23T17:14:53.143Z,5.57
2018-11-23T17:17:57.375Z,5.37
2018-11-23T17:21:01.495Z,5.30
2018-11-23T17:24:05.851Z,5.21
2018-11-23T17:27:09.961Z,5.18
2018-11-23T17:30:16.026Z,5.06
2018-11-23T17:33:20.143Z,5.03
2018-11-23T17:36:24.263Z,4.93
2018-11-23T17:39:28.382Z,5.00
2018-11-23T17:42:32.491Z,5.06
2018-11-23T17:45:37.167Z,4.99
2018-11-23T17:48:41.376Z,4.91
2018-11-23T17:51:45.477Z,4.80
2018-11-23T17:54:49.598Z,4.74
2018-11-23T17:57:54.809Z,4.84
2018-11-23T18:00:58.882Z,4.83
2018-11-23T18:04:03.000Z,4.78
2018-11-23T18:07:07.111Z,4.72
2018-11-23T18:10:14.137Z,4.65
2018-11-23T18:13:18.271Z,4.69
2018-11-23T18:16:22.383Z,4.74
2018-11-23T18:19:26.705Z,4.75
2018-11-23T18:22:30.819Z,4.67
2018-11-23T18:25:36.725Z,4.51
2018-11-23T18:28:40.861Z,4.46
2018-11-23T18:31:44.990Z,4.48
2018-11-23T18:34:49.114Z,4.40
2018-11-23T18:37:53.288Z,4.39
2018-11-23T18:40:57.392Z,4.33
2018-11-23T18:44:01.521Z,4.36
2018-11-23T18:47:05.656Z,4.26
2018-11-23T18:50:13.590Z,4.34
2018-11-23T18:53:17.703Z,4.37
2018-11-23T18:56:21.818Z,4.36
2018-11-23T18:59:25.926Z,4.29
2018-11-23T19:02:30.096Z,4.23
2018-11-23T19:05:34.224Z,4.34
2018-11-23T19:08:38.347Z,4.52
2018-11-23T19:11:42.466Z,4.68
2018-11-23T19:14:46.579Z,4.85
2018-11-23T19:17:50.691Z,4.95
2018-11-23T19:20:54.836Z,4.98
2018-11-23T19:23:58.948Z,5.08
2018-11-23T19:27:03.091Z,5.10
2018-11-23T19:30:13.440Z,5.20
2018-11-23T19:33:17.555Z,5.23
2018-11-23T19:36:21.689Z,5.33
2018-11-23T19:39:28.880Z,5.35
2018-11-23T19:42:32.983Z,5.26
2018-11-23T19:45:37.112Z,5.30
2018-11-23T19:48:41.231Z,5.31
2018-11-23T19:51:45.347Z,5.24
2018-11-23T19:54:49.460Z,5.35
2018-11-23T19:57:53.820Z,5.41
2018-11-23T20:00:57.946Z,5.43
2018-11-23T20:04:02.067Z,5.49
2018-11-23T20:07:06.181Z,5.46
2018-11-23T20:10:15.363Z,5.43
2018-11-23T20:13:19.467Z,5.34
2018-11-23T20:16:23.579Z,5.39
2018-11-23T20:19:27.695Z,5.29
2018-11-23T20:22:31.882Z,5.36
2018-11-23T20:25:35.992Z,5.36
2018-11-23T20:28:40.114Z,5.38
2018-11-23T20:31:44.244Z,5.37
2018-11-23T20:34:48.371Z,5.43
2018-11-23T20:37:52.561Z,5.42
2018-11-23T20:40:56.684Z,5.42
2018-11-23T20:44:00.814Z,5.37
2018-11-23T20:47:05.255Z,5.03
2018-11-23T20:50:11.528Z,4.85
2018-11-23T20:53:15.635Z,4.67
2018-11-23T20:56:19.823Z,4.43
2018-11-23T20:59:23.935Z,4.34
2018-11-23T21:02:28.043Z,4.25
2018-11-23T21:05:32.174Z,4.27
2018-11-23T21:08:36.307Z,4.29
2018-11-23T21:11:40.463Z,4.24
2018-11-23T21:14:44.575Z,4.11
2018-11-23T21:17:48.716Z,4.02
2018-11-23T21:20:52.868Z,3.99
2018-11-23T21:23:56.987Z,3.95
2018-11-23T21:27:01.099Z,3.93
2018-11-23T21:30:15.091Z,3.91
2018-11-23T21:33:19.211Z,3.96
2018-11-23T21:36:23.344Z,4.00
2018-11-23T21:39:27.466Z,3.95
2018-11-23T21:42:31.587Z,3.95
2018-11-23T21:45:35.720Z,3.96
2018-11-23T21:48:39.836Z,3.92
2018-11-23T21:51:43.957Z,3.95
2018-11-23T21:54:48.248Z,3.98
2018-11-23T21:57:53.758Z,4.00
2018-11-23T22:00:57.933Z,3.95
2018-11-23T22:04:06.364Z,3.98
2018-11-23T22:07:06.552Z,3.89
2018-11-23T22:10:15.347Z,3.88
2018-11-23T22:13:19.466Z,3.87
2018-11-23T22:16:23.585Z,3.87
2018-11-23T22:19:27.696Z,3.92
2018-11-23T22:22:31.820Z,3.95
2018-11-23T22:25:35.976Z,3.93
2018-11-23T22:28:40.155Z,3.91
2018-11-23T22:31:45.776Z,4.00
2018-11-23T22:34:50.007Z,3.95
2018-11-23T22:37:54.158Z,3.97
2018-11-23T22:40:58.608Z,3.88
2018-11-23T22:44:02.728Z,3.92
2018-11-23T22:47:06.979Z,3.92
2018-11-23T22:50:13.272Z,4.00
2018-11-23T22:53:17.396Z,4.09
2018-11-23T22:56:21.612Z,4.10
2018-11-23T22:59:25.759Z,4.11
2018-11-23T23:02:29.921Z,4.13
2018-11-23T23:05:34.092Z,4.22
2018-11-23T23:08:38.279Z,4.29
2018-11-23T23:11:42.436Z,4.40
2018-11-23T23:14:46.555Z,4.46
2018-11-23T23:17:51.527Z,4.51
2018-11-23T23:20:55.676Z,4.55
2018-11-23T23:23:59.815Z,4.57
2018-11-23T23:27:03.968Z,4.57
2018-11-23T23:30:10.511Z,4.63
2018-11-23T23:33:14.631Z,4.66
2018-11-23T23:36:18.789Z,4.78
2018-11-23T23:39:22.911Z,4.76
2018-11-23T23:42:27.076Z,4.82
2018-11-23T23:45:31.208Z,4.81
2018-11-23T23:48:35.339Z,4.87
2018-11-23T23:51:39.476Z,4.93
2018-11-23T23:54:43.597Z,4.95
2018-11-23T23:57:48.424Z,5.04
